createdAt,value
2022-09-16T00:00:05.615Z,15.90
2022-09-16T00:00:38.836Z,15.90
2022-09-16T00:01:12.788Z,16.00
2022-09-16T00:01:45.678Z,16.00
2022-09-16T00:02:17.519Z,16.00
2022-09-16T00:02:52.362Z,16.00
2022-09-16T00:03:25.394Z,16.00
2022-09-16T00:03:57.595Z,16.00
2022-09-16T00:04:29.405Z,15.90
2022-09-16T00:05:01.210Z,16.00
2022-09-16T00:05:34.003Z,15.90
2022-09-16T00:06:06.479Z,15.90
2022-09-16T00:06:38.334Z,15.90
2022-09-16T00:07:11.130Z,15.80
2022-09-16T00:07:42.881Z,15.80
2022-09-16T00:08:15.574Z,15.80
2022-09-16T00:08:48.903Z,15.70
2022-09-16T00:09:20.694Z,15.80
2022-09-16T00:09:52.631Z,15.70
2022-09-16T00:10:25.543Z,15.70
2022-09-16T00:11:00.023Z,15.70
2022-09-16T00:11:34.370Z,15.70
2022-09-16T00:12:08.002Z,15.70
2022-09-16T00:12:40.229Z,15.70
2022-09-16T00:13:12.836Z,15.70
2022-09-16T00:13:46.279Z,15.70
2022-09-16T00:14:18.045Z,15.60
2022-09-16T00:14:51.890Z,15.70
2022-09-16T00:15:23.725Z,15.60
2022-09-16T00:15:56.517Z,15.60
2022-09-16T00:16:29.766Z,15.60
2022-09-16T00:17:01.653Z,15.60
2022-09-16T00:17:34.589Z,15.60
2022-09-16T00:18:07.377Z,15.60
2022-09-16T00:18:39.194Z,15.60
2022-09-16T00:19:11.022Z,15.50
2022-09-16T00:19:43.896Z,15.60
2022-09-16T00:20:15.761Z,15.60
2022-09-16T00:20:49.463Z,15.50
2022-09-16T00:21:22.667Z,15.50
2022-09-16T00:21:54.445Z,15.50
2022-09-16T00:22:28.669Z,15.50
2022-09-16T00:23:01.395Z,15.50
2022-09-16T00:23:33.185Z,15.50
2022-09-16T00:24:06.446Z,15.50
2022-09-16T00:24:38.398Z,15.50
2022-09-16T00:25:10.276Z,15.50
2022-09-16T00:25:43.161Z,15.50
2022-09-16T00:26:15.088Z,15.50
2022-09-16T00:26:48.298Z,15.60
2022-09-16T00:27:21.338Z,15.60
2022-09-16T00:27:53.305Z,15.60
2022-09-16T00:28:25.246Z,15.60
2022-09-16T00:28:57.044Z,15.60
2022-09-16T00:29:30.424Z,15.70
2022-09-16T00:30:02.584Z,15.70
2022-09-16T00:30:34.656Z,15.70
2022-09-16T00:31:07.732Z,15.70
2022-09-16T00:31:39.633Z,15.80
2022-09-16T00:32:11.562Z,15.70
2022-09-16T00:32:44.782Z,15.80
2022-09-16T00:33:17.741Z,15.80
2022-09-16T00:33:50.511Z,15.80
2022-09-16T00:34:22.457Z,15.90
2022-09-16T00:34:54.534Z,15.90
2022-09-16T00:35:27.392Z,15.90
2022-09-16T00:36:06.860Z,15.90
2022-09-16T00:36:38.643Z,16.00
2022-09-16T00:37:11.391Z,15.90
2022-09-16T00:37:43.150Z,15.90
2022-09-16T00:38:15.191Z,15.90
2022-09-16T00:38:52.348Z,15.90
2022-09-16T00:39:24.332Z,15.90
2022-09-16T00:39:56.145Z,15.80
2022-09-16T00:40:29.122Z,15.80
2022-09-16T00:41:01.033Z,15.70
2022-09-16T00:41:34.335Z,15.70
2022-09-16T00:42:07.595Z,15.70
2022-09-16T00:42:40.278Z,15.70
2022-09-16T00:43:14.902Z,15.70
2022-09-16T00:43:49.587Z,15.70
2022-09-16T00:44:54.981Z,15.70
2022-09-16T00:45:31.413Z,15.70
2022-09-16T00:46:05.224Z,15.60
2022-09-16T00:46:43.165Z,15.60
2022-09-16T00:47:18.211Z,15.60
2022-09-16T00:47:53.663Z,15.60
2022-09-16T00:48:29.058Z,15.50
2022-09-16T00:49:05.717Z,15.60
2022-09-16T00:49:37.572Z,15.60
2022-09-16T00:50:14.794Z,15.60
2022-09-16T00:50:51.173Z,15.60
2022-09-16T00:51:25.265Z,15.60
2022-09-16T00:52:02.617Z,15.60
2022-09-16T00:52:35.237Z,15.60
2022-09-16T00:53:10.291Z,15.70
2022-09-16T00:53:45.591Z,15.70
2022-09-16T00:54:20.219Z,15.60
2022-09-16T00:54:53.002Z,15.60
2022-09-16T00:55:30.533Z,15.70
2022-09-16T00:56:05.470Z,15.70
2022-09-16T00:56:41.102Z,15.70
2022-09-16T00:57:15.750Z,15.70
2022-09-16T00:57:48.131Z,15.70
2022-09-16T00:58:26.431Z,15.70
2022-09-16T00:59:05.603Z,15.70
2022-09-16T00:59:40.730Z,15.60
2022-09-16T01:00:14.097Z,15.60
2022-09-16T01:00:46.305Z,15.60
2022-09-16T01:01:18.431Z,15.60
2022-09-16T01:01:52.751Z,15.60
2022-09-16T01:02:25.680Z,15.60
2022-09-16T01:02:57.864Z,15.60
2022-09-16T01:03:32.499Z,15.60
2022-09-16T01:04:09.648Z,15.60
2022-09-16T01:04:47.369Z,15.60
2022-09-16T01:05:23.027Z,15.60
2022-09-16T01:05:55.471Z,15.60
2022-09-16T01:06:28.228Z,15.60
2022-09-16T01:07:00.820Z,15.50
2022-09-16T01:07:38.739Z,15.50
2022-09-16T01:08:10.633Z,15.40
2022-09-16T01:08:43.558Z,15.40
2022-09-16T01:09:17.814Z,15.30
2022-09-16T01:09:49.622Z,15.30
2022-09-16T01:10:24.194Z,15.30
2022-09-16T01:10:57.174Z,15.30
2022-09-16T01:11:29.313Z,15.10
2022-09-16T01:12:01.435Z,15.20
2022-09-16T01:12:37.363Z,15.20
2022-09-16T01:13:12.633Z,15.20
2022-09-16T01:13:46.189Z,15.20
2022-09-16T01:14:38.498Z,15.20
2022-09-16T01:15:13.799Z,15.10
2022-09-16T01:15:54.424Z,15.10
2022-09-16T01:16:32.727Z,15.10
2022-09-16T01:17:15.892Z,15.20
2022-09-16T01:17:57.965Z,15.10
2022-09-16T01:18:39.129Z,15.10
2022-09-16T01:19:24.338Z,15.10
2022-09-16T01:20:23.225Z,15.10
2022-09-16T01:21:13.915Z,15.10
2022-09-16T01:21:54.725Z,15.10
2022-09-16T01:22:42.935Z,15.10
2022-09-16T01:23:59.889Z,15.10
2022-09-16T01:24:49.833Z,15.10
2022-09-16T01:25:41.452Z,15.10
2022-09-16T01:26:40.900Z,15.10
2022-09-16T01:27:37.014Z,15.10
2022-09-16T01:28:35.126Z,15.00
2022-09-16T01:29:40.047Z,15.00
2022-09-16T01:30:44.142Z,15.00
2022-09-16T01:31:21.025Z,15.00
2022-09-16T01:32:00.492Z,15.00
2022-09-16T01:32:42.351Z,15.00
2022-09-16T01:33:24.180Z,15.00
2022-09-16T01:34:04.325Z,15.00
2022-09-16T01:34:46.845Z,15.00
2022-09-16T01:35:25.173Z,15.00
2022-09-16T01:36:25.194Z,15.00
2022-09-16T01:37:04.257Z,15.00
2022-09-16T01:37:47.267Z,15.00
2022-09-16T01:38:46.496Z,14.90
2022-09-16T01:39:29.987Z,14.90
2022-09-16T01:40:10.469Z,14.90
2022-09-16T01:40:54.196Z,14.90
2022-09-16T01:41:32.160Z,14.90
2022-09-16T01:42:20.791Z,14.80
2022-09-16T01:43:00.698Z,14.90
2022-09-16T01:43:44.318Z,14.90
2022-09-16T01:44:26.749Z,14.90
2022-09-16T01:45:05.653Z,14.80
2022-09-16T01:45:43.019Z,14.90
2022-09-16T01:46:22.246Z,14.90
2022-09-16T01:47:00.084Z,14.90
2022-09-16T01:47:39.853Z,14.90
2022-09-16T01:48:17.603Z,14.90
2022-09-16T01:48:56.635Z,14.90
2022-09-16T01:49:40.305Z,14.90
2022-09-16T01:50:20.643Z,15.00
2022-09-16T01:51:00.176Z,15.00
2022-09-16T01:51:39.289Z,15.00
2022-09-16T01:52:22.089Z,15.00
2022-09-16T01:53:01.961Z,15.00
2022-09-16T01:53:37.304Z,15.00
2022-09-16T01:54:13.183Z,15.00
2022-09-16T01:54:52.168Z,15.00
2022-09-16T01:55:29.945Z,15.00
2022-09-16T01:56:08.644Z,15.00
2022-09-16T01:56:45.561Z,15.00
2022-09-16T01:57:21.678Z,15.00
2022-09-16T01:57:59.652Z,15.00
2022-09-16T01:58:39.758Z,15.00
2022-09-16T01:59:17.110Z,15.00
2022-09-16T01:59:53.779Z,15.00
2022-09-16T02:00:26.899Z,15.00
2022-09-16T02:01:06.601Z,15.00
2022-09-16T02:01:47.491Z,14.90
2022-09-16T02:02:26.056Z,15.00
2022-09-16T02:03:02.226Z,14.90
2022-09-16T02:03:36.510Z,14.90
2022-09-16T02:04:15.546Z,14.90
2022-09-16T02:04:50.857Z,14.90
2022-09-16T02:05:26.624Z,14.90
2022-09-16T02:06:02.956Z,14.90
2022-09-16T02:06:36.759Z,14.90
2022-09-16T02:07:12.876Z,14.90
2022-09-16T02:07:52.605Z,14.90
2022-09-16T02:08:30.229Z,14.90
2022-09-16T02:09:05.590Z,15.00
2022-09-16T02:09:42.381Z,14.90
2022-09-16T02:10:19.760Z,14.90
2022-09-16T02:10:57.405Z,15.00
2022-09-16T02:11:30.708Z,15.00
2022-09-16T02:12:06.905Z,15.00
2022-09-16T02:12:41.589Z,15.00
2022-09-16T02:13:20.384Z,15.00
2022-09-16T02:13:57.776Z,15.00
2022-09-16T02:14:33.445Z,15.00
2022-09-16T02:15:10.017Z,15.00
2022-09-16T02:15:43.918Z,15.00
2022-09-16T02:16:22.352Z,15.00
2022-09-16T02:16:59.272Z,15.00
2022-09-16T02:17:34.733Z,15.00
2022-09-16T02:18:12.072Z,15.00
2022-09-16T02:18:50.792Z,15.00
2022-09-16T02:19:26.452Z,15.00
2022-09-16T02:20:03.546Z,15.00
2022-09-16T02:20:39.428Z,15.00
2022-09-16T02:21:14.465Z,15.00
2022-09-16T02:21:47.360Z,15.00
2022-09-16T02:22:30.103Z,15.00
2022-09-16T02:23:06.257Z,15.00
2022-09-16T02:23:41.255Z,15.00
2022-09-16T02:24:18.718Z,15.00
2022-09-16T02:24:52.841Z,15.00
2022-09-16T02:25:25.151Z,15.00
2022-09-16T02:26:00.697Z,15.00
2022-09-16T02:26:38.982Z,15.00
2022-09-16T02:27:16.731Z,15.10
2022-09-16T02:27:50.178Z,15.00
2022-09-16T02:28:26.070Z,15.00
2022-09-16T02:29:00.531Z,15.00
2022-09-16T02:29:37.691Z,15.00
2022-09-16T02:30:14.201Z,15.00
2022-09-16T02:30:52.772Z,15.00
2022-09-16T02:31:32.193Z,15.00
2022-09-16T02:32:08.471Z,15.00
2022-09-16T02:32:45.398Z,15.00
2022-09-16T02:33:19.493Z,15.00
2022-09-16T02:33:56.856Z,15.00
2022-09-16T02:34:32.606Z,15.00
2022-09-16T02:35:08.887Z,15.00
2022-09-16T02:35:48.511Z,15.00
2022-09-16T02:36:22.475Z,15.00
2022-09-16T02:36:57.884Z,15.00
2022-09-16T02:37:35.874Z,15.00
2022-09-16T02:38:12.609Z,15.00
2022-09-16T02:38:47.089Z,15.00
2022-09-16T02:39:23.614Z,15.00
2022-09-16T02:40:02.106Z,15.00
2022-09-16T02:40:41.629Z,15.00
2022-09-16T02:41:14.882Z,15.10
2022-09-16T02:41:47.226Z,15.10
2022-09-16T02:42:20.020Z,15.10
2022-09-16T02:42:52.161Z,15.10
2022-09-16T02:43:25.577Z,15.10
2022-09-16T02:43:58.422Z,15.10
2022-09-16T02:44:30.349Z,15.10
2022-09-16T02:45:05.278Z,15.10
2022-09-16T02:45:46.237Z,15.00
2022-09-16T02:46:26.786Z,15.00
2022-09-16T02:47:06.366Z,15.00
2022-09-16T02:47:46.722Z,15.00
2022-09-16T02:48:27.826Z,15.00
2022-09-16T02:49:09.931Z,15.00
2022-09-16T02:49:48.560Z,15.00
2022-09-16T02:50:29.819Z,15.00
2022-09-16T02:51:07.758Z,15.00
2022-09-16T02:51:50.346Z,15.00
2022-09-16T02:52:29.340Z,15.00
2022-09-16T02:53:04.274Z,15.00
2022-09-16T02:53:45.085Z,15.00
2022-09-16T02:54:23.901Z,14.90
2022-09-16T02:55:04.515Z,15.00
2022-09-16T02:55:45.653Z,14.90
2022-09-16T02:56:23.203Z,14.90
2022-09-16T02:56:57.550Z,14.90
2022-09-16T02:57:29.768Z,14.90
2022-09-16T02:58:01.681Z,14.90
2022-09-16T02:58:34.528Z,14.90
2022-09-16T02:59:08.296Z,15.00
2022-09-16T02:59:40.281Z,15.00
2022-09-16T03:00:13.595Z,15.00
2022-09-16T03:00:49.319Z,15.00
2022-09-16T03:01:24.194Z,15.00
2022-09-16T03:01:57.023Z,15.00
2022-09-16T03:02:33.008Z,15.00
2022-09-16T03:03:04.998Z,15.00
2022-09-16T03:03:37.830Z,15.00
2022-09-16T03:04:10.867Z,15.00
2022-09-16T03:04:43.595Z,15.00
2022-09-16T03:05:15.427Z,15.00
2022-09-16T03:06:19.243Z,15.00
2022-09-16T03:06:52.045Z,14.90
2022-09-16T03:07:23.844Z,14.90
2022-09-16T03:07:56.346Z,14.90
2022-09-16T03:08:28.223Z,14.90
2022-09-16T03:09:03.866Z,15.00
2022-09-16T03:09:39.477Z,14.90
2022-09-16T03:10:14.932Z,14.90
2022-09-16T03:10:47.220Z,15.00
2022-09-16T03:11:30.538Z,15.00
2022-09-16T03:12:32.074Z,14.90
2022-09-16T03:13:10.516Z,14.90
2022-09-16T03:13:54.741Z,14.90
2022-09-16T03:15:02.675Z,14.90
2022-09-16T03:15:46.726Z,14.90
2022-09-16T03:16:24.550Z,14.90
2022-09-16T03:17:05.342Z,14.90
2022-09-16T03:18:06.833Z,14.90
2022-09-16T03:18:58.247Z,14.90
2022-09-16T03:19:39.308Z,14.90
2022-09-16T03:20:22.080Z,14.90
2022-09-16T03:21:00.080Z,14.90
2022-09-16T03:21:40.705Z,14.90
2022-09-16T03:22:26.600Z,14.90
2022-09-16T03:23:10.297Z,14.90
2022-09-16T03:23:47.069Z,14.90
2022-09-16T03:24:29.537Z,14.90
2022-09-16T03:25:10.804Z,14.90
2022-09-16T03:25:52.058Z,14.80
2022-09-16T03:26:31.850Z,14.90
2022-09-16T03:27:08.719Z,14.90
2022-09-16T03:27:47.136Z,14.90
2022-09-16T03:28:24.067Z,14.90
2022-09-16T03:29:12.265Z,14.90
2022-09-16T03:29:49.982Z,14.90
2022-09-16T03:30:21.763Z,14.90
2022-09-16T03:31:04.704Z,14.90
2022-09-16T03:31:44.100Z,14.90
2022-09-16T03:32:20.996Z,14.90
2022-09-16T03:32:59.493Z,14.90
2022-09-16T03:33:37.420Z,14.80
2022-09-16T03:34:15.263Z,14.80
2022-09-16T03:34:52.651Z,14.80
2022-09-16T03:35:29.520Z,14.90
2022-09-16T03:36:05.169Z,14.80
2022-09-16T03:36:43.343Z,14.80
2022-09-16T03:37:19.142Z,14.80
2022-09-16T03:37:53.521Z,14.80
2022-09-16T03:38:26.768Z,14.80
2022-09-16T03:38:59.846Z,14.80
2022-09-16T03:39:32.884Z,14.80
2022-09-16T03:40:09.073Z,14.80
2022-09-16T03:40:43.419Z,14.80
2022-09-16T03:41:16.756Z,14.80
2022-09-16T03:41:50.309Z,14.80
2022-09-16T03:42:22.489Z,14.80
2022-09-16T03:42:54.287Z,14.80
2022-09-16T03:43:27.082Z,14.80
2022-09-16T03:44:03.810Z,14.80
2022-09-16T03:44:39.228Z,14.80
2022-09-16T03:45:15.759Z,14.80
2022-09-16T03:45:48.729Z,14.80
2022-09-16T03:46:20.598Z,14.80
2022-09-16T03:46:53.369Z,14.80
2022-09-16T03:47:25.272Z,14.80
2022-09-16T03:47:58.381Z,14.80
2022-09-16T03:48:31.173Z,14.80
2022-09-16T03:49:03.331Z,14.80
2022-09-16T03:49:35.390Z,14.80
2022-09-16T03:50:08.777Z,14.80
2022-09-16T03:50:41.427Z,14.80
2022-09-16T03:51:13.424Z,14.80
2022-09-16T03:51:46.158Z,14.80
2022-09-16T03:52:19.022Z,14.80
2022-09-16T03:52:50.776Z,14.80
2022-09-16T03:53:23.535Z,14.80
2022-09-16T03:53:55.565Z,14.80
2022-09-16T03:54:28.598Z,14.80
2022-09-16T03:55:01.318Z,14.80
2022-09-16T03:55:33.111Z,14.90
2022-09-16T03:56:05.253Z,14.80
2022-09-16T03:56:37.993Z,14.90
2022-09-16T03:57:09.838Z,14.90
2022-09-16T03:57:41.605Z,14.90
2022-09-16T03:58:14.405Z,14.90
2022-09-16T03:58:47.978Z,14.90
2022-09-16T03:59:19.813Z,14.90
2022-09-16T03:59:52.550Z,14.80
2022-09-16T04:00:24.340Z,14.80
2022-09-16T04:00:57.086Z,14.80
2022-09-16T04:01:28.980Z,14.80
2022-09-16T04:02:00.953Z,14.90
2022-09-16T04:02:33.798Z,14.80
2022-09-16T04:03:07.077Z,14.80
2022-09-16T04:03:38.913Z,14.80
2022-09-16T04:04:12.263Z,14.80
2022-09-16T04:04:44.214Z,14.80
2022-09-16T04:05:16.044Z,14.80
2022-09-16T04:05:53.869Z,14.90
2022-09-16T04:06:25.812Z,14.90
2022-09-16T04:06:57.614Z,14.90
2022-09-16T04:07:30.369Z,14.90
2022-09-16T04:08:02.498Z,14.90
2022-09-16T04:08:34.262Z,14.90
2022-09-16T04:09:08.275Z,14.90
2022-09-16T04:09:40.031Z,14.90
2022-09-16T04:10:12.352Z,14.90
2022-09-16T04:10:54.812Z,14.90
2022-09-16T04:11:29.616Z,15.00
2022-09-16T04:12:01.885Z,14.90
2022-09-16T04:12:34.949Z,14.90
2022-09-16T04:13:06.817Z,14.90
2022-09-16T04:13:38.604Z,14.90
2022-09-16T04:14:11.629Z,14.90
2022-09-16T04:14:43.418Z,15.00
2022-09-16T04:15:15.282Z,14.90
2022-09-16T04:15:48.056Z,14.90
2022-09-16T04:16:21.535Z,14.90
2022-09-16T04:16:55.150Z,14.90
2022-09-16T04:17:26.919Z,14.90
2022-09-16T04:18:01.480Z,14.90
2022-09-16T04:18:35.613Z,14.90
2022-09-16T04:19:07.496Z,14.90
2022-09-16T04:19:40.237Z,14.90
2022-09-16T04:20:12.013Z,14.90
2022-09-16T04:20:44.078Z,14.90
2022-09-16T04:21:17.326Z,14.90
2022-09-16T04:21:49.102Z,15.00
2022-09-16T04:22:20.886Z,14.90
2022-09-16T04:22:53.617Z,15.00
2022-09-16T04:23:25.704Z,15.00
2022-09-16T04:23:57.545Z,14.90
2022-09-16T04:24:30.815Z,14.90
2022-09-16T04:25:02.650Z,15.00
2022-09-16T04:25:34.504Z,14.90
2022-09-16T04:26:07.273Z,14.90
2022-09-16T04:26:39.060Z,14.90
2022-09-16T04:27:10.836Z,14.90
2022-09-16T04:27:43.590Z,15.00
2022-09-16T04:28:15.376Z,14.90
2022-09-16T04:28:47.857Z,14.90
2022-09-16T04:29:20.616Z,14.90
2022-09-16T04:29:52.368Z,14.90
2022-09-16T04:30:24.133Z,14.90
2022-09-16T04:31:01.311Z,14.90
2022-09-16T04:31:33.174Z,14.80
2022-09-16T04:32:05.129Z,14.80
2022-09-16T04:32:37.849Z,14.80
2022-09-16T04:33:09.614Z,14.80
2022-09-16T04:33:43.068Z,14.80
2022-09-16T04:34:15.976Z,14.80
2022-09-16T04:34:47.803Z,14.80
2022-09-16T04:35:19.577Z,14.80
2022-09-16T04:35:52.291Z,14.80
2022-09-16T04:36:24.516Z,14.80
2022-09-16T04:36:56.321Z,14.80
2022-09-16T04:37:31.246Z,14.80
2022-09-16T04:38:03.446Z,14.80
2022-09-16T04:38:35.574Z,14.80
2022-09-16T04:39:08.314Z,14.70
2022-09-16T04:39:40.125Z,14.70
2022-09-16T04:40:12.073Z,14.80
2022-09-16T04:40:43.894Z,14.80
2022-09-16T04:41:18.964Z,14.80
2022-09-16T04:41:50.785Z,14.80
2022-09-16T04:42:23.512Z,14.80
2022-09-16T04:42:55.282Z,14.80
2022-09-16T04:43:27.063Z,14.80
2022-09-16T04:44:00.189Z,14.80
2022-09-16T04:44:32.936Z,14.80
2022-09-16T04:45:05.987Z,14.80
2022-09-16T04:45:37.761Z,14.80
2022-09-16T04:46:10.985Z,14.80
2022-09-16T04:46:42.838Z,14.80
2022-09-16T04:47:14.656Z,14.80
2022-09-16T04:47:47.389Z,14.80
2022-09-16T04:48:19.198Z,14.90
2022-09-16T04:48:53.696Z,14.90
2022-09-16T04:49:26.505Z,14.90
2022-09-16T04:49:58.316Z,14.90
2022-09-16T04:50:30.103Z,14.90
2022-09-16T04:51:03.680Z,15.00
2022-09-16T04:51:36.470Z,14.90
2022-09-16T04:52:08.383Z,14.90
2022-09-16T04:52:40.213Z,14.90
2022-09-16T04:53:11.979Z,14.90
2022-09-16T04:53:45.294Z,14.90
2022-09-16T04:54:17.250Z,14.90
2022-09-16T04:54:49.061Z,14.80
2022-09-16T04:55:23.069Z,14.80
2022-09-16T04:55:54.972Z,14.80
2022-09-16T04:56:28.470Z,14.80
2022-09-16T04:57:02.065Z,14.80
2022-09-16T04:57:33.842Z,14.80
2022-09-16T04:58:05.627Z,14.80
2022-09-16T04:58:38.458Z,14.80
2022-09-16T04:59:10.505Z,14.80
2022-09-16T04:59:42.270Z,14.80
2022-09-16T05:00:15.885Z,14.80
2022-09-16T05:00:47.717Z,14.80
2022-09-16T05:01:21.982Z,14.80
2022-09-16T05:01:54.918Z,14.80
2022-09-16T05:02:28.527Z,14.80
2022-09-16T05:03:00.369Z,14.80
2022-09-16T05:03:32.461Z,14.80
2022-09-16T05:04:08.461Z,14.80
2022-09-16T05:04:40.219Z,14.80
2022-09-16T05:05:12.047Z,14.90
2022-09-16T05:05:44.797Z,14.70
2022-09-16T05:06:20.707Z,14.80
2022-09-16T05:06:53.925Z,14.70
2022-09-16T05:07:25.732Z,14.70
2022-09-16T05:07:57.581Z,14.70
2022-09-16T05:08:30.322Z,14.80
2022-09-16T05:09:02.992Z,14.80
2022-09-16T05:09:37.475Z,14.70
2022-09-16T05:10:09.630Z,14.80
2022-09-16T05:10:41.402Z,14.80
2022-09-16T05:11:15.969Z,14.80
2022-09-16T05:11:47.777Z,14.80
2022-09-16T05:12:19.529Z,14.80
2022-09-16T05:12:53.044Z,14.80
2022-09-16T05:13:24.880Z,14.70
2022-09-16T05:14:00.164Z,14.80
2022-09-16T05:14:32.012Z,14.80
2022-09-16T05:15:04.471Z,14.80
2022-09-16T05:15:36.277Z,14.70
2022-09-16T05:16:13.774Z,14.70
2022-09-16T05:16:45.964Z,14.70
2022-09-16T05:17:33.421Z,14.80
2022-09-16T05:18:10.508Z,14.80
2022-09-16T05:18:44.319Z,14.70
2022-09-16T05:19:18.408Z,14.70
2022-09-16T05:19:50.184Z,14.70
2022-09-16T05:20:22.045Z,14.90
2022-09-16T05:20:57.390Z,14.80
2022-09-16T05:21:30.294Z,14.70
2022-09-16T05:22:06.872Z,14.80
2022-09-16T05:22:39.064Z,14.70
2022-09-16T05:23:11.842Z,14.70
2022-09-16T05:23:46.968Z,14.80
2022-09-16T05:24:18.901Z,14.70
2022-09-16T05:24:51.661Z,14.80
2022-09-16T05:25:23.425Z,14.80
2022-09-16T05:25:55.437Z,14.70
2022-09-16T05:26:29.729Z,14.70
2022-09-16T05:27:02.482Z,14.70
2022-09-16T05:27:35.690Z,14.70
2022-09-16T05:28:07.466Z,14.70
2022-09-16T05:28:40.427Z,14.70
2022-09-16T05:29:14.014Z,14.70
2022-09-16T05:29:45.804Z,14.70
2022-09-16T05:30:21.709Z,14.70
2022-09-16T05:31:07.728Z,14.80
2022-09-16T05:31:42.190Z,14.80
2022-09-16T05:32:14.033Z,14.70
2022-09-16T05:32:45.818Z,14.80
2022-09-16T05:33:18.553Z,14.80
2022-09-16T05:33:55.223Z,14.70
2022-09-16T05:34:28.660Z,14.80
2022-09-16T05:35:01.439Z,14.70
2022-09-16T05:35:33.549Z,14.80
2022-09-16T05:36:06.986Z,14.70
2022-09-16T05:36:39.975Z,14.70
2022-09-16T05:37:11.766Z,14.80
2022-09-16T05:37:43.605Z,14.80
2022-09-16T05:38:16.762Z,14.80
2022-09-16T05:39:11.022Z,14.80
2022-09-16T05:39:43.113Z,14.80
2022-09-16T05:40:15.166Z,14.80
2022-09-16T05:40:46.941Z,14.90
2022-09-16T05:41:19.776Z,14.70
2022-09-16T05:41:54.368Z,14.70
2022-09-16T05:42:26.179Z,14.80
2022-09-16T05:42:58.981Z,14.80
2022-09-16T05:43:31.240Z,14.80
2022-09-16T05:44:03.318Z,14.80
2022-09-16T05:44:36.401Z,14.80
2022-09-16T05:45:09.534Z,14.80
2022-09-16T05:45:41.346Z,14.80
2022-09-16T05:46:22.029Z,14.80
2022-09-16T05:46:54.203Z,14.80
2022-09-16T05:47:27.321Z,14.80
2022-09-16T05:48:00.069Z,14.80
2022-09-16T05:48:32.639Z,14.80
2022-09-16T05:49:04.772Z,14.80
2022-09-16T05:49:38.900Z,14.70
2022-09-16T05:50:10.744Z,14.70
2022-09-16T05:50:42.517Z,14.70
2022-09-16T05:51:20.557Z,14.70
2022-09-16T05:51:53.117Z,14.80
2022-09-16T05:52:25.882Z,14.80
2022-09-16T05:52:57.670Z,14.80
2022-09-16T05:53:31.070Z,14.80
2022-09-16T05:54:03.871Z,14.80
2022-09-16T05:54:35.734Z,14.80
2022-09-16T05:55:09.420Z,14.90
2022-09-16T05:55:41.218Z,14.90
2022-09-16T05:56:16.516Z,14.90
2022-09-16T05:56:48.523Z,14.90
2022-09-16T05:57:21.546Z,14.90
2022-09-16T05:57:53.327Z,14.90
2022-09-16T05:58:26.600Z,14.90
2022-09-16T05:59:00.817Z,14.90
2022-09-16T05:59:32.581Z,14.90
2022-09-16T06:00:06.189Z,14.90
2022-09-16T06:00:37.970Z,14.90
2022-09-16T06:01:13.634Z,14.90
2022-09-16T06:01:46.979Z,14.90
2022-09-16T06:02:18.863Z,15.00
2022-09-16T06:02:50.742Z,15.00
2022-09-16T06:03:23.521Z,15.00
2022-09-16T06:03:55.731Z,15.00
2022-09-16T06:04:27.625Z,15.00
2022-09-16T06:05:02.192Z,15.00
2022-09-16T06:05:34.316Z,15.00
2022-09-16T06:06:11.445Z,15.00
2022-09-16T06:06:45.496Z,15.00
2022-09-16T06:07:17.314Z,15.10
2022-09-16T06:07:50.133Z,15.10
2022-09-16T06:08:21.909Z,15.10
2022-09-16T06:08:56.811Z,15.10
2022-09-16T06:09:30.922Z,15.20
2022-09-16T06:10:02.777Z,15.20
2022-09-16T06:10:38.177Z,15.20
2022-09-16T06:11:12.685Z,15.20
2022-09-16T06:11:46.770Z,15.20
2022-09-16T06:12:19.553Z,15.20
2022-09-16T06:12:51.307Z,15.20
2022-09-16T06:13:23.207Z,15.20
2022-09-16T06:13:57.807Z,15.20
2022-09-16T06:14:29.793Z,15.20
2022-09-16T06:15:01.606Z,15.30
2022-09-16T06:15:35.508Z,15.30
2022-09-16T06:16:09.330Z,15.30
2022-09-16T06:16:41.887Z,15.20
2022-09-16T06:17:14.741Z,15.20
2022-09-16T06:17:46.563Z,15.20
2022-09-16T06:18:18.877Z,15.20
2022-09-16T06:18:51.589Z,15.20
2022-09-16T06:19:23.524Z,15.20
2022-09-16T06:19:55.341Z,15.20
2022-09-16T06:20:29.472Z,15.20
2022-09-16T06:21:05.057Z,15.20
2022-09-16T06:21:37.459Z,15.20
2022-09-16T06:22:10.198Z,15.20
2022-09-16T06:22:41.961Z,15.20
2022-09-16T06:23:14.079Z,15.20
2022-09-16T06:23:46.848Z,15.20
2022-09-16T06:24:20.269Z,15.20
2022-09-16T06:24:53.034Z,15.20
2022-09-16T06:25:24.784Z,15.20
2022-09-16T06:26:01.177Z,15.20
2022-09-16T06:26:33.906Z,15.20
2022-09-16T06:27:05.680Z,15.20
2022-09-16T06:27:38.569Z,15.20
2022-09-16T06:28:11.457Z,15.20
2022-09-16T06:28:43.504Z,15.20
2022-09-16T06:29:17.557Z,15.20
2022-09-16T06:29:49.345Z,15.10
2022-09-16T06:30:21.127Z,15.10
2022-09-16T06:31:02.498Z,15.10
2022-09-16T06:31:36.097Z,15.10
2022-09-16T06:32:08.826Z,15.20
2022-09-16T06:32:40.632Z,15.20
2022-09-16T06:33:12.786Z,15.20
2022-09-16T06:33:45.809Z,15.20
2022-09-16T06:34:18.550Z,15.20
2022-09-16T06:34:50.572Z,15.20
2022-09-16T06:35:23.557Z,15.20
2022-09-16T06:35:57.728Z,15.20
2022-09-16T06:36:33.458Z,15.20
2022-09-16T06:37:05.382Z,15.20
2022-09-16T06:37:37.152Z,15.10
2022-09-16T06:38:09.883Z,15.10
2022-09-16T06:38:41.933Z,15.10
2022-09-16T06:39:16.463Z,15.10
2022-09-16T06:39:48.255Z,15.10
2022-09-16T06:40:20.141Z,15.10
2022-09-16T06:40:52.921Z,15.10
2022-09-16T06:41:25.335Z,15.10
2022-09-16T06:41:57.179Z,15.10
2022-09-16T06:42:29.947Z,15.00
2022-09-16T06:43:01.713Z,15.00
2022-09-16T06:43:34.301Z,15.10
2022-09-16T06:44:07.033Z,15.00
2022-09-16T06:44:38.793Z,15.10
2022-09-16T06:45:11.239Z,15.10
2022-09-16T06:45:44.051Z,15.10
2022-09-16T06:46:18.374Z,15.10
2022-09-16T06:46:51.233Z,15.10
2022-09-16T06:47:23.106Z,15.10
2022-09-16T06:47:59.110Z,15.10
2022-09-16T06:48:34.488Z,15.10
2022-09-16T06:49:06.854Z,15.10
2022-09-16T06:49:39.761Z,15.10
2022-09-16T06:50:11.591Z,15.10
2022-09-16T06:50:43.417Z,15.10
2022-09-16T06:51:19.477Z,15.10
2022-09-16T06:51:51.702Z,15.10
2022-09-16T06:52:24.531Z,15.10
2022-09-16T06:52:56.317Z,15.10
2022-09-16T06:53:29.109Z,15.20
2022-09-16T06:54:03.329Z,15.20
2022-09-16T06:54:35.136Z,15.20
2022-09-16T06:55:07.821Z,15.20
2022-09-16T06:55:39.573Z,15.20
2022-09-16T06:56:14.246Z,15.30
2022-09-16T06:56:46.046Z,15.40
2022-09-16T06:57:20.020Z,15.20
2022-09-16T06:57:52.810Z,15.20
2022-09-16T06:58:24.597Z,15.20
2022-09-16T06:58:57.229Z,15.20
2022-09-16T06:59:30.060Z,15.20
2022-09-16T07:00:02.491Z,15.20
2022-09-16T07:00:34.285Z,15.20
2022-09-16T07:01:07.614Z,15.40
2022-09-16T07:01:39.899Z,15.20
2022-09-16T07:02:13.194Z,15.20
2022-09-16T07:02:45.086Z,15.20
2022-09-16T07:03:17.200Z,15.30
2022-09-16T07:03:51.421Z,15.20
2022-09-16T07:04:23.211Z,15.20
2022-09-16T07:04:55.110Z,15.20
2022-09-16T07:05:28.095Z,15.20
2022-09-16T07:06:01.834Z,15.20
2022-09-16T07:07:08.557Z,15.20
2022-09-16T07:07:31.281Z,15.20
2022-09-16T07:08:04.092Z,15.20
2022-09-16T07:08:36.729Z,15.20
2022-09-16T07:09:10.121Z,15.20
2022-09-16T07:09:41.934Z,15.20
2022-09-16T07:10:14.872Z,15.20
2022-09-16T07:10:56.082Z,15.20
2022-09-16T07:11:28.160Z,15.20
2022-09-16T07:12:01.083Z,15.20
2022-09-16T07:12:32.857Z,15.30
2022-09-16T07:13:05.912Z,15.30
2022-09-16T07:13:39.193Z,15.30
2022-09-16T07:14:11.143Z,15.30
2022-09-16T07:14:43.897Z,15.30
2022-09-16T07:15:15.805Z,15.30
2022-09-16T07:16:11.940Z,15.30
2022-09-16T07:16:40.362Z,15.40
2022-09-16T07:17:12.164Z,15.40
2022-09-16T07:17:44.150Z,15.40
2022-09-16T07:18:16.902Z,15.40
2022-09-16T07:18:52.146Z,15.40
2022-09-16T07:19:24.720Z,15.30
2022-09-16T07:19:57.531Z,15.40
2022-09-16T07:20:29.732Z,15.30
2022-09-16T07:21:03.207Z,15.30
2022-09-16T07:21:37.310Z,15.30
2022-09-16T07:22:11.344Z,15.30
2022-09-16T07:22:43.149Z,15.30
2022-09-16T07:23:15.984Z,15.30
2022-09-16T07:23:48.663Z,15.30
2022-09-16T07:24:20.524Z,15.40
2022-09-16T07:24:54.144Z,15.30
2022-09-16T07:25:26.630Z,15.40
2022-09-16T07:26:02.434Z,15.40
2022-09-16T07:26:37.602Z,15.40
2022-09-16T07:27:09.439Z,15.40
2022-09-16T07:27:42.103Z,15.40
2022-09-16T07:28:14.923Z,15.40
2022-09-16T07:28:48.638Z,15.40
2022-09-16T07:29:21.929Z,15.40
2022-09-16T07:29:54.063Z,15.50
2022-09-16T07:30:26.667Z,15.50
2022-09-16T07:31:02.375Z,15.50